sensor_id;sensor_type;location;lat;lon;timestamp;P1;durP1;ratioP1;P2;durP2;ratioP2
15006;SDS011;7599;50.748;13.142;2024-01-30T00:01:16;6.47;;;3.05;;
15006;SDS011;7599;50.748;13.142;2024-01-30T00:04:19;4.50;;;3.08;;
15006;SDS011;7599;50.748;13.142;2024-01-30T00:07:22;7.10;;;3.50;;
15006;SDS011;7599;50.748;13.142;2024-01-30T00:14:02;5.97;;;3.00;;
15006;SDS011;7599;50.748;13.142;2024-01-30T00:17:06;4.72;;;2.88;;
15006;SDS011;7599;50.748;13.142;2024-01-30T00:20:09;6.47;;;3.22;;
15006;SDS011;7599;50.748;13.142;2024-01-30T00:23:13;6.05;;;3.10;;
15006;SDS011;7599;50.748;13.142;2024-01-30T00:26:15;5.22;;;2.90;;
15006;SDS011;7599;50.748;13.142;2024-01-30T00:29:22;5.63;;;3.20;;
15006;SDS011;7599;50.748;13.142;2024-01-30T00:32:33;5.43;;;2.78;;
15006;SDS011;7599;50.748;13.142;2024-01-30T00:35:45;5.18;;;2.97;;
15006;SDS011;7599;50.748;13.142;2024-01-30T00:38:48;5.65;;;2.90;;
15006;SDS011;7599;50.748;13.142;2024-01-30T00:44:53;5.75;;;3.10;;
15006;SDS011;7599;50.748;13.142;2024-01-30T00:48:01;6.40;;;3.30;;
15006;SDS011;7599;50.748;13.142;2024-01-30T00:51:04;5.35;;;3.03;;
15006;SDS011;7599;50.748;13.142;2024-01-30T00:54:39;6.55;;;3.22;;
15006;SDS011;7599;50.748;13.142;2024-01-30T00:57:41;5.38;;;3.05;;
15006;SDS011;7599;50.748;13.142;2024-01-30T01:00:46;5.75;;;2.97;;
15006;SDS011;7599;50.748;13.142;2024-01-30T01:03:49;5.38;;;2.88;;
15006;SDS011;7599;50.748;13.142;2024-01-30T01:07:06;6.32;;;3.22;;
15006;SDS011;7599;50.748;13.142;2024-01-30T01:10:19;5.88;;;2.97;;
15006;SDS011;7599;50.748;13.142;2024-01-30T01:13:22;7.53;;;2.97;;
15006;SDS011;7599;50.748;13.142;2024-01-30T01:16:25;6.80;;;2.85;;
15006;SDS011;7599;50.748;13.142;2024-01-30T01:19:27;6.00;;;3.35;;
15006;SDS011;7599;50.748;13.142;2024-01-30T01:22:30;5.10;;;2.92;;
15006;SDS011;7599;50.748;13.142;2024-01-30T01:25:35;6.32;;;2.85;;
15006;SDS011;7599;50.748;13.142;2024-01-30T01:28:39;5.10;;;2.72;;
15006;SDS011;7599;50.748;13.142;2024-01-30T01:31:41;4.55;;;2.50;;
15006;SDS011;7599;50.748;13.142;2024-01-30T01:34:54;5.60;;;2.72;;
15006;SDS011;7599;50.748;13.142;2024-01-30T01:37:57;4.53;;;2.85;;
15006;SDS011;7599;50.748;13.142;2024-01-30T01:41:03;4.60;;;2.60;;
15006;SDS011;7599;50.748;13.142;2024-01-30T01:44:12;4.43;;;2.90;;
15006;SDS011;7599;50.748;13.142;2024-01-30T01:47:30;5.88;;;3.13;;
15006;SDS011;7599;50.748;13.142;2024-01-30T01:50:33;4.75;;;2.75;;
15006;SDS011;7599;50.748;13.142;2024-01-30T01:53:36;6.38;;;3.00;;
15006;SDS011;7599;50.748;13.142;2024-01-30T01:59:43;5.50;;;2.70;;
15006;SDS011;7599;50.748;13.142;2024-01-30T02:02:46;5.97;;;3.03;;
15006;SDS011;7599;50.748;13.142;2024-01-30T02:05:49;5.50;;;2.90;;
15006;SDS011;7599;50.748;13.142;2024-01-30T02:08:53;6.47;;;2.95;;
15006;SDS011;7599;50.748;13.142;2024-01-30T02:11:57;5.88;;;2.88;;
15006;SDS011;7599;50.748;13.142;2024-01-30T02:15:00;8.45;;;3.08;;
15006;SDS011;7599;50.748;13.142;2024-01-30T02:21:17;4.60;;;2.58;;
15006;SDS011;7599;50.748;13.142;2024-01-30T02:24:20;5.40;;;2.90;;
15006;SDS011;7599;50.748;13.142;2024-01-30T02:27:24;3.70;;;2.25;;
15006;SDS011;7599;50.748;13.142;2024-01-30T02:30:27;6.35;;;3.30;;
15006;SDS011;7599;50.748;13.142;2024-01-30T02:33:35;5.30;;;2.67;;
15006;SDS011;7599;50.748;13.142;2024-01-30T02:36:54;5.28;;;2.90;;
15006;SDS011;7599;50.748;13.142;2024-01-30T02:39:58;5.00;;;2.72;;
15006;SDS011;7599;50.748;13.142;2024-01-30T02:43:21;4.60;;;2.95;;
15006;SDS011;7599;50.748;13.142;2024-01-30T02:46:24;6.13;;;2.97;;
15006;SDS011;7599;50.748;13.142;2024-01-30T02:49:27;4.20;;;2.40;;
15006;SDS011;7599;50.748;13.142;2024-01-30T02:55:49;4.00;;;2.60;;
15006;SDS011;7599;50.748;13.142;2024-01-30T02:58:53;4.35;;;2.30;;
15006;SDS011;7599;50.748;13.142;2024-01-30T03:01:56;4.78;;;2.53;;
15006;SDS011;7599;50.748;13.142;2024-01-30T03:08:22;5.03;;;2.67;;
15006;SDS011;7599;50.748;13.142;2024-01-30T03:11:32;3.88;;;2.30;;
15006;SDS011;7599;50.748;13.142;2024-01-30T03:14:35;4.75;;;3.00;;
15006;SDS011;7599;50.748;13.142;2024-01-30T03:17:37;3.72;;;2.20;;
15006;SDS011;7599;50.748;13.142;2024-01-30T03:20:54;6.65;;;2.58;;
15006;SDS011;7599;50.748;13.142;2024-01-30T03:24:14;4.28;;;2.53;;
15006;SDS011;7599;50.748;13.142;2024-01-30T03:27:37;4.43;;;2.58;;
15006;SDS011;7599;50.748;13.142;2024-01-30T03:30:44;3.42;;;2.22;;
15006;SDS011;7599;50.748;13.142;2024-01-30T03:33:57;3.90;;;2.40;;
15006;SDS011;7599;50.748;13.142;2024-01-30T03:37:11;4.55;;;2.58;;
15006;SDS011;7599;50.748;13.142;2024-01-30T03:40:24;3.78;;;2.25;;
15006;SDS011;7599;50.748;13.142;2024-01-30T03:43:36;3.80;;;2.25;;
15006;SDS011;7599;50.748;13.142;2024-01-30T03:46:39;3.95;;;2.33;;
15006;SDS011;7599;50.748;13.142;2024-01-30T03:49:42;4.97;;;2.30;;
15006;SDS011;7599;50.748;13.142;2024-01-30T03:52:56;3.58;;;2.30;;
15006;SDS011;7599;50.748;13.142;2024-01-30T03:56:12;4.15;;;2.53;;
15006;SDS011;7599;50.748;13.142;2024-01-30T03:59:15;3.95;;;2.50;;
15006;SDS011;7599;50.748;13.142;2024-01-30T04:02:33;4.32;;;2.40;;
15006;SDS011;7599;50.748;13.142;2024-01-30T04:05:41;4.97;;;2.60;;
15006;SDS011;7599;50.748;13.142;2024-01-30T04:08:44;4.55;;;2.60;;
15006;SDS011;7599;50.748;13.142;2024-01-30T04:15:06;4.40;;;2.65;;
15006;SDS011;7599;50.748;13.142;2024-01-30T04:18:09;5.38;;;2.60;;
15006;SDS011;7599;50.748;13.142;2024-01-30T04:21:12;3.58;;;2.28;;
15006;SDS011;7599;50.748;13.142;2024-01-30T04:24:14;4.25;;;2.53;;
15006;SDS011;7599;50.748;13.142;2024-01-30T04:27:21;5.13;;;2.70;;
15006;SDS011;7599;50.748;13.142;2024-01-30T04:30:39;3.65;;;2.13;;
15006;SDS011;7599;50.748;13.142;2024-01-30T04:33:42;3.40;;;2.20;;
15006;SDS011;7599;50.748;13.142;2024-01-30T04:36:45;5.22;;;2.65;;
15006;SDS011;7599;50.748;13.142;2024-01-30T04:39:58;4.57;;;2.40;;
15006;SDS011;7599;50.748;13.142;2024-01-30T04:43:02;4.78;;;2.55;;
15006;SDS011;7599;50.748;13.142;2024-01-30T04:46:05;6.22;;;2.88;;
15006;SDS011;7599;50.748;13.142;2024-01-30T04:49:08;4.47;;;2.53;;
15006;SDS011;7599;50.748;13.142;2024-01-30T04:52:10;4.35;;;2.55;;
15006;SDS011;7599;50.748;13.142;2024-01-30T04:55:29;4.30;;;2.63;;
15006;SDS011;7599;50.748;13.142;2024-01-30T04:58:33;4.15;;;2.25;;
15006;SDS011;7599;50.748;13.142;2024-01-30T05:01:36;4.88;;;2.65;;
15006;SDS011;7599;50.748;13.142;2024-01-30T05:04:40;4.70;;;2.38;;
15006;SDS011;7599;50.748;13.142;2024-01-30T05:07:43;5.07;;;2.90;;
15006;SDS011;7599;50.748;13.142;2024-01-30T05:10:45;4.93;;;2.50;;
15006;SDS011;7599;50.748;13.142;2024-01-30T05:13:50;4.78;;;2.85;;
15006;SDS011;7599;50.748;13.142;2024-01-30T05:16:53;4.88;;;2.97;;
15006;SDS011;7599;50.748;13.142;2024-01-30T05:19:56;5.15;;;3.00;;
15006;SDS011;7599;50.748;13.142;2024-01-30T05:22:58;4.63;;;2.63;;
15006;SDS011;7599;50.748;13.142;2024-01-30T05:26:01;4.32;;;2.80;;
15006;SDS011;7599;50.748;13.142;2024-01-30T05:29:06;6.35;;;2.90;;
15006;SDS011;7599;50.748;13.142;2024-01-30T05:32:08;5.55;;;2.72;;
15006;SDS011;7599;50.748;13.142;2024-01-30T05:35:29;6.00;;;2.78;;
15006;SDS011;7599;50.748;13.142;2024-01-30T05:38:32;4.50;;;2.50;;
15006;SDS011;7599;50.748;13.142;2024-01-30T05:54:42;4.90;;;2.90;;
15006;SDS011;7599;50.748;13.142;2024-01-30T05:57:45;5.03;;;2.90;;
15006;SDS011;7599;50.748;13.142;2024-01-30T06:00:57;5.07;;;2.80;;
15006;SDS011;7599;50.748;13.142;2024-01-30T06:04:11;5.32;;;2.83;;
15006;SDS011;7599;50.748;13.142;2024-01-30T06:07:20;6.05;;;2.88;;
15006;SDS011;7599;50.748;13.142;2024-01-30T06:10:23;4.50;;;2.70;;
15006;SDS011;7599;50.748;13.142;2024-01-30T06:13:26;6.78;;;3.20;;
15006;SDS011;7599;50.748;13.142;2024-01-30T06:16:37;5.95;;;3.10;;
15006;SDS011;7599;50.748;13.142;2024-01-30T06:19:40;4.60;;;2.90;;
15006;SDS011;7599;50.748;13.142;2024-01-30T06:22:44;4.30;;;2.88;;
15006;SDS011;7599;50.748;13.142;2024-01-30T06:25:46;4.32;;;2.60;;
15006;SDS011;7599;50.748;13.142;2024-01-30T06:28:49;5.22;;;2.95;;
15006;SDS011;7599;50.748;13.142;2024-01-30T06:31:55;5.68;;;2.83;;
15006;SDS011;7599;50.748;13.142;2024-01-30T06:38:16;5.43;;;2.78;;
15006;SDS011;7599;50.748;13.142;2024-01-30T06:41:19;5.88;;;2.97;;
15006;SDS011;7599;50.748;13.142;2024-01-30T06:44:36;5.03;;;2.75;;
15006;SDS011;7599;50.748;13.142;2024-01-30T06:47:39;6.03;;;3.40;;
15006;SDS011;7599;50.748;13.142;2024-01-30T06:50:41;5.30;;;2.85;;
15006;SDS011;7599;50.748;13.142;2024-01-30T06:57:09;6.32;;;3.10;;
15006;SDS011;7599;50.748;13.142;2024-01-30T07:00:13;6.07;;;3.67;;
15006;SDS011;7599;50.748;13.142;2024-01-30T07:03:17;5.20;;;3.28;;
15006;SDS011;7599;50.748;13.142;2024-01-30T07:06:20;5.40;;;3.22;;
15006;SDS011;7599;50.748;13.142;2024-01-30T07:09:25;4.95;;;3.03;;
15006;SDS011;7599;50.748;13.142;2024-01-30T07:12:28;4.82;;;3.20;;
15006;SDS011;7599;50.748;13.142;2024-01-30T07:15:41;7.28;;;3.88;;
15006;SDS011;7599;50.748;13.142;2024-01-30T07:18:44;5.68;;;3.53;;
15006;SDS011;7599;50.748;13.142;2024-01-30T07:21:57;4.35;;;2.95;;
15006;SDS011;7599;50.748;13.142;2024-01-30T07:28:51;5.50;;;3.20;;
15006;SDS011;7599;50.748;13.142;2024-01-30T07:31:53;7.30;;;2.90;;
15006;SDS011;7599;50.748;13.142;2024-01-30T07:34:59;5.65;;;3.08;;
15006;SDS011;7599;50.748;13.142;2024-01-30T07:38:09;8.13;;;3.47;;
15006;SDS011;7599;50.748;13.142;2024-01-30T07:44:28;5.95;;;3.33;;
15006;SDS011;7599;50.748;13.142;2024-01-30T07:47:30;5.78;;;3.47;;
15006;SDS011;7599;50.748;13.142;2024-01-30T07:50:34;5.60;;;3.00;;
15006;SDS011;7599;50.748;13.142;2024-01-30T07:53:37;6.15;;;3.58;;
15006;SDS011;7599;50.748;13.142;2024-01-30T07:56:39;6.93;;;4.45;;
15006;SDS011;7599;50.748;13.142;2024-01-30T07:59:44;6.90;;;3.47;;
15006;SDS011;7599;50.748;13.142;2024-01-30T08:02:47;6.80;;;3.53;;
15006;SDS011;7599;50.748;13.142;2024-01-30T08:05:50;5.82;;;3.20;;
15006;SDS011;7599;50.748;13.142;2024-01-30T08:08:52;5.78;;;3.38;;
15006;SDS011;7599;50.748;13.142;2024-01-30T08:11:55;5.22;;;3.25;;
15006;SDS011;7599;50.748;13.142;2024-01-30T08:15:00;5.43;;;3.30;;
15006;SDS011;7599;50.748;13.142;2024-01-30T08:18:18;6.65;;;3.50;;
15006;SDS011;7599;50.748;13.142;2024-01-30T08:21:21;8.45;;;3.97;;
15006;SDS011;7599;50.748;13.142;2024-01-30T08:24:23;7.35;;;3.60;;
15006;SDS011;7599;50.748;13.142;2024-01-30T08:27:32;4.60;;;3.13;;
15006;SDS011;7599;50.748;13.142;2024-01-30T08:41:29;7.40;;;4.20;;
15006;SDS011;7599;50.748;13.142;2024-01-30T08:44:32;8.32;;;3.95;;
15006;SDS011;7599;50.748;13.142;2024-01-30T08:47:35;6.35;;;3.88;;
15006;SDS011;7599;50.748;13.142;2024-01-30T08:50:42;5.85;;;3.53;;
15006;SDS011;7599;50.748;13.142;2024-01-30T08:53:44;6.28;;;3.92;;
15006;SDS011;7599;50.748;13.142;2024-01-30T08:57:00;6.65;;;3.60;;
15006;SDS011;7599;50.748;13.142;2024-01-30T09:00:03;6.60;;;3.65;;
15006;SDS011;7599;50.748;13.142;2024-01-30T09:03:18;8.10;;;3.72;;
15006;SDS011;7599;50.748;13.142;2024-01-30T09:06:34;6.22;;;3.85;;
15006;SDS011;7599;50.748;13.142;2024-01-30T09:09:37;7.68;;;4.82;;
15006;SDS011;7599;50.748;13.142;2024-01-30T09:12:52;6.72;;;3.60;;
15006;SDS011;7599;50.748;13.142;2024-01-30T09:15:55;7.38;;;4.05;;
15006;SDS011;7599;50.748;13.142;2024-01-30T09:18:58;5.55;;;3.40;;
15006;SDS011;7599;50.748;13.142;2024-01-30T09:22:22;6.30;;;3.72;;
15006;SDS011;7599;50.748;13.142;2024-01-30T09:25:27;7.60;;;3.67;;
15006;SDS011;7599;50.748;13.142;2024-01-30T09:31:57;6.47;;;3.70;;
15006;SDS011;7599;50.748;13.142;2024-01-30T09:35:01;7.00;;;3.90;;
15006;SDS011;7599;50.748;13.142;2024-01-30T09:38:27;7.63;;;4.35;;
15006;SDS011;7599;50.748;13.142;2024-01-30T09:41:30;6.47;;;4.03;;
15006;SDS011;7599;50.748;13.142;2024-01-30T09:44:37;7.20;;;4.00;;
15006;SDS011;7599;50.748;13.142;2024-01-30T09:47:51;6.32;;;3.78;;
15006;SDS011;7599;50.748;13.142;2024-01-30T09:51:09;7.88;;;4.70;;
15006;SDS011;7599;50.748;13.142;2024-01-30T09:54:17;5.20;;;3.47;;
15006;SDS011;7599;50.748;13.142;2024-01-30T09:57:23;7.18;;;4.05;;
15006;SDS011;7599;50.748;13.142;2024-01-30T10:00:43;6.80;;;4.43;;
15006;SDS011;7599;50.748;13.142;2024-01-30T10:03:49;7.40;;;3.90;;
15006;SDS011;7599;50.748;13.142;2024-01-30T10:07:07;7.50;;;3.78;;
15006;SDS011;7599;50.748;13.142;2024-01-30T10:10:23;5.68;;;3.42;;
15006;SDS011;7599;50.748;13.142;2024-01-30T10:13:26;6.15;;;3.65;;
15006;SDS011;7599;50.748;13.142;2024-01-30T10:16:30;5.53;;;3.33;;
15006;SDS011;7599;50.748;13.142;2024-01-30T10:19:33;7.70;;;3.67;;
15006;SDS011;7599;50.748;13.142;2024-01-30T10:22:40;7.03;;;3.67;;
15006;SDS011;7599;50.748;13.142;2024-01-30T10:25:43;7.05;;;3.70;;
15006;SDS011;7599;50.748;13.142;2024-01-30T10:28:47;7.07;;;3.80;;
15006;SDS011;7599;50.748;13.142;2024-01-30T10:32:01;6.93;;;4.15;;
15006;SDS011;7599;50.748;13.142;2024-01-30T10:35:23;6.57;;;3.72;;
15006;SDS011;7599;50.748;13.142;2024-01-30T10:38:42;6.35;;;3.45;;
15006;SDS011;7599;50.748;13.142;2024-01-30T10:41:51;4.72;;;3.22;;
15006;SDS011;7599;50.748;13.142;2024-01-30T10:45:00;6.20;;;3.33;;
15006;SDS011;7599;50.748;13.142;2024-01-30T10:48:23;5.85;;;3.15;;
15006;SDS011;7599;50.748;13.142;2024-01-30T10:51:46;6.70;;;3.28;;
15006;SDS011;7599;50.748;13.142;2024-01-30T10:55:10;6.80;;;3.58;;
15006;SDS011;7599;50.748;13.142;2024-01-30T10:58:15;5.40;;;3.38;;
15006;SDS011;7599;50.748;13.142;2024-01-30T11:01:18;6.82;;;4.57;;
15006;SDS011;7599;50.748;13.142;2024-01-30T11:04:43;6.72;;;3.38;;
15006;SDS011;7599;50.748;13.142;2024-01-30T11:07:46;5.13;;;3.25;;
15006;SDS011;7599;50.748;13.142;2024-01-30T11:10:55;5.55;;;3.20;;
15006;SDS011;7599;50.748;13.142;2024-01-30T11:17:16;6.78;;;3.20;;
15006;SDS011;7599;50.748;13.142;2024-01-30T11:20:30;6.68;;;3.25;;
15006;SDS011;7599;50.748;13.142;2024-01-30T11:23:33;5.45;;;3.40;;
15006;SDS011;7599;50.748;13.142;2024-01-30T11:30:23;5.82;;;3.08;;
15006;SDS011;7599;50.748;13.142;2024-01-30T11:33:27;4.45;;;2.95;;
15006;SDS011;7599;50.748;13.142;2024-01-30T11:40:07;7.70;;;3.63;;
15006;SDS011;7599;50.748;13.142;2024-01-30T11:43:25;5.47;;;3.38;;
15006;SDS011;7599;50.748;13.142;2024-01-30T11:46:29;5.65;;;3.50;;
15006;SDS011;7599;50.748;13.142;2024-01-30T11:49:32;5.57;;;3.20;;
15006;SDS011;7599;50.748;13.142;2024-01-30T11:59:19;5.40;;;3.38;;
15006;SDS011;7599;50.748;13.142;2024-01-30T12:02:22;7.30;;;3.60;;
15006;SDS011;7599;50.748;13.142;2024-01-30T12:05:24;6.28;;;3.47;;
15006;SDS011;7599;50.748;13.142;2024-01-30T12:08:36;4.35;;;3.17;;
15006;SDS011;7599;50.748;13.142;2024-01-30T12:12:02;5.72;;;3.05;;
15006;SDS011;7599;50.748;13.142;2024-01-30T12:15:12;4.57;;;2.95;;
15006;SDS011;7599;50.748;13.142;2024-01-30T12:18:18;5.53;;;3.03;;
15006;SDS011;7599;50.748;13.142;2024-01-30T12:21:21;3.67;;;2.95;;
15006;SDS011;7599;50.748;13.142;2024-01-30T12:24:43;3.97;;;2.80;;
15006;SDS011;7599;50.748;13.142;2024-01-30T12:27:47;5.38;;;2.90;;
15006;SDS011;7599;50.748;13.142;2024-01-30T12:31:41;4.45;;;2.85;;
15006;SDS011;7599;50.748;13.142;2024-01-30T12:35:17;4.13;;;2.80;;
15006;SDS011;7599;50.748;13.142;2024-01-30T12:38:22;3.58;;;2.45;;
15006;SDS011;7599;50.748;13.142;2024-01-30T12:41:36;5.78;;;2.80;;
15006;SDS011;7599;50.748;13.142;2024-01-30T12:44:58;4.15;;;2.88;;
15006;SDS011;7599;50.748;13.142;2024-01-30T12:48:02;5.20;;;2.63;;
15006;SDS011;7599;50.748;13.142;2024-01-30T12:51:05;4.93;;;3.00;;
15006;SDS011;7599;50.748;13.142;2024-01-30T12:54:08;5.18;;;3.10;;
15006;SDS011;7599;50.748;13.142;2024-01-30T13:06:50;6.53;;;2.65;;
15006;SDS011;7599;50.748;13.142;2024-01-30T13:09:52;5.65;;;2.58;;
15006;SDS011;7599;50.748;13.142;2024-01-30T13:12:55;5.25;;;2.95;;
15006;SDS011;7599;50.748;13.142;2024-01-30T13:16:00;6.47;;;2.75;;
15006;SDS011;7599;50.748;13.142;2024-01-30T13:19:04;6.10;;;2.63;;
15006;SDS011;7599;50.748;13.142;2024-01-30T13:22:09;5.30;;;2.35;;
15006;SDS011;7599;50.748;13.142;2024-01-30T13:25:12;5.70;;;2.40;;
15006;SDS011;7599;50.748;13.142;2024-01-30T13:35:02;2.90;;;2.42;;
15006;SDS011;7599;50.748;13.142;2024-01-30T13:38:06;4.35;;;2.30;;
15006;SDS011;7599;50.748;13.142;2024-01-30T13:41:08;5.50;;;2.58;;
15006;SDS011;7599;50.748;13.142;2024-01-30T13:44:11;4.15;;;2.50;;
15006;SDS011;7599;50.748;13.142;2024-01-30T13:47:14;3.45;;;2.17;;
15006;SDS011;7599;50.748;13.142;2024-01-30T13:53:59;5.90;;;2.50;;
15006;SDS011;7599;50.748;13.142;2024-01-30T13:57:01;3.42;;;2.20;;
15006;SDS011;7599;50.748;13.142;2024-01-30T14:00:16;4.75;;;2.72;;
15006;SDS011;7599;50.748;13.142;2024-01-30T14:03:21;5.53;;;2.20;;
15006;SDS011;7599;50.748;13.142;2024-01-30T14:06:24;3.33;;;2.20;;
15006;SDS011;7599;50.748;13.142;2024-01-30T14:12:31;3.53;;;2.05;;
15006;SDS011;7599;50.748;13.142;2024-01-30T14:15:34;4.07;;;2.08;;
15006;SDS011;7599;50.748;13.142;2024-01-30T14:18:44;4.10;;;2.55;;
15006;SDS011;7599;50.748;13.142;2024-01-30T14:21:47;3.55;;;2.17;;
15006;SDS011;7599;50.748;13.142;2024-01-30T14:24:51;2.85;;;1.83;;
15006;SDS011;7599;50.748;13.142;2024-01-30T14:27:54;3.33;;;2.10;;
15006;SDS011;7599;50.748;13.142;2024-01-30T14:31:05;5.35;;;2.00;;
15006;SDS011;7599;50.748;13.142;2024-01-30T14:34:18;3.78;;;2.10;;
15006;SDS011;7599;50.748;13.142;2024-01-30T14:37:20;6.63;;;2.65;;
15006;SDS011;7599;50.748;13.142;2024-01-30T14:40:26;4.43;;;2.03;;
15006;SDS011;7599;50.748;13.142;2024-01-30T14:43:29;5.28;;;2.40;;
15006;SDS011;7599;50.748;13.142;2024-01-30T14:49:41;4.50;;;2.42;;
15006;SDS011;7599;50.748;13.142;2024-01-30T14:52:43;3.70;;;2.30;;
15006;SDS011;7599;50.748;13.142;2024-01-30T14:55:49;3.03;;;2.28;;
15006;SDS011;7599;50.748;13.142;2024-01-30T14:58:51;3.38;;;2.10;;
15006;SDS011;7599;50.748;13.142;2024-01-30T15:01:54;4.05;;;2.47;;
15006;SDS011;7599;50.748;13.142;2024-01-30T15:04:57;3.78;;;2.40;;
15006;SDS011;7599;50.748;13.142;2024-01-30T15:08:01;5.15;;;2.95;;
15006;SDS011;7599;50.748;13.142;2024-01-30T15:11:06;4.53;;;2.60;;
15006;SDS011;7599;50.748;13.142;2024-01-30T15:14:09;3.85;;;2.10;;
15006;SDS011;7599;50.748;13.142;2024-01-30T15:17:19;3.78;;;2.50;;
15006;SDS011;7599;50.748;13.142;2024-01-30T15:20:22;5.28;;;2.88;;
15006;SDS011;7599;50.748;13.142;2024-01-30T15:23:26;5.00;;;2.40;;
15006;SDS011;7599;50.748;13.142;2024-01-30T15:26:46;5.13;;;2.90;;
15006;SDS011;7599;50.748;13.142;2024-01-30T15:29:50;5.00;;;2.58;;
15006;SDS011;7599;50.748;13.142;2024-01-30T15:32:53;3.60;;;2.63;;
15006;SDS011;7599;50.748;13.142;2024-01-30T15:35:58;5.15;;;3.10;;
15006;SDS011;7599;50.748;13.142;2024-01-30T15:39:02;4.35;;;2.80;;
15006;SDS011;7599;50.748;13.142;2024-01-30T15:42:25;4.30;;;2.85;;
15006;SDS011;7599;50.748;13.142;2024-01-30T15:45:27;3.78;;;2.58;;
15006;SDS011;7599;50.748;13.142;2024-01-30T15:48:30;4.72;;;3.28;;
15006;SDS011;7599;50.748;13.142;2024-01-30T15:51:34;5.97;;;3.60;;
15006;SDS011;7599;50.748;13.142;2024-01-30T15:54:37;4.72;;;2.70;;
15006;SDS011;7599;50.748;13.142;2024-01-30T15:57:41;6.55;;;3.80;;
15006;SDS011;7599;50.748;13.142;2024-01-30T16:00:43;5.53;;;3.20;;
15006;SDS011;7599;50.748;13.142;2024-01-30T16:06:49;6.57;;;3.03;;
15006;SDS011;7599;50.748;13.142;2024-01-30T16:09:55;4.88;;;3.08;;
15006;SDS011;7599;50.748;13.142;2024-01-30T16:13:05;5.05;;;3.00;;
15006;SDS011;7599;50.748;13.142;2024-01-30T16:16:08;4.63;;;3.13;;
15006;SDS011;7599;50.748;13.142;2024-01-30T16:19:11;4.80;;;2.95;;
15006;SDS011;7599;50.748;13.142;2024-01-30T16:22:14;5.22;;;3.03;;
15006;SDS011;7599;50.748;13.142;2024-01-30T16:25:18;6.22;;;3.47;;
15006;SDS011;7599;50.748;13.142;2024-01-30T16:28:24;4.88;;;3.10;;
15006;SDS011;7599;50.748;13.142;2024-01-30T16:31:28;4.85;;;3.00;;
15006;SDS011;7599;50.748;13.142;2024-01-30T16:37:33;4.70;;;2.85;;
15006;SDS011;7599;50.748;13.142;2024-01-30T16:40:36;6.03;;;3.03;;
15006;SDS011;7599;50.748;13.142;2024-01-30T16:43:43;4.88;;;2.85;;
15006;SDS011;7599;50.748;13.142;2024-01-30T16:46:46;4.78;;;3.15;;
15006;SDS011;7599;50.748;13.142;2024-01-30T16:49:51;3.35;;;2.50;;
15006;SDS011;7599;50.748;13.142;2024-01-30T16:52:59;3.50;;;2.40;;
15006;SDS011;7599;50.748;13.142;2024-01-30T16:56:02;4.78;;;2.53;;
15006;SDS011;7599;50.748;13.142;2024-01-30T16:59:06;4.45;;;2.63;;
15006;SDS011;7599;50.748;13.142;2024-01-30T17:02:19;4.35;;;2.65;;
15006;SDS011;7599;50.748;13.142;2024-01-30T17:05:26;3.95;;;2.33;;
15006;SDS011;7599;50.748;13.142;2024-01-30T17:08:29;4.18;;;2.40;;
15006;SDS011;7599;50.748;13.142;2024-01-30T17:11:33;5.43;;;2.55;;
15006;SDS011;7599;50.748;13.142;2024-01-30T17:14:37;4.22;;;2.60;;
15006;SDS011;7599;50.748;13.142;2024-01-30T17:17:43;3.50;;;2.22;;
15006;SDS011;7599;50.748;13.142;2024-01-30T17:30:10;4.25;;;2.28;;
15006;SDS011;7599;50.748;13.142;2024-01-30T17:33:14;4.32;;;2.20;;
15006;SDS011;7599;50.748;13.142;2024-01-30T17:36:17;4.97;;;2.40;;
15006;SDS011;7599;50.748;13.142;2024-01-30T17:39:20;3.35;;;2.10;;
15006;SDS011;7599;50.748;13.142;2024-01-30T17:42:22;4.65;;;2.20;;
15006;SDS011;7599;50.748;13.142;2024-01-30T17:45:27;6.00;;;2.45;;
15006;SDS011;7599;50.748;13.142;2024-01-30T17:48:30;4.05;;;2.50;;
15006;SDS011;7599;50.748;13.142;2024-01-30T17:51:49;2.90;;;2.28;;
15006;SDS011;7599;50.748;13.142;2024-01-30T17:54:52;7.63;;;2.97;;
15006;SDS011;7599;50.748;13.142;2024-01-30T17:58:11;4.82;;;2.33;;
15006;SDS011;7599;50.748;13.142;2024-01-30T18:01:16;4.97;;;2.50;;
15006;SDS011;7599;50.748;13.142;2024-01-30T18:07:44;5.53;;;2.17;;
15006;SDS011;7599;50.748;13.142;2024-01-30T18:10:56;4.72;;;2.17;;
15006;SDS011;7599;50.748;13.142;2024-01-30T18:13:59;3.35;;;1.90;;
15006;SDS011;7599;50.748;13.142;2024-01-30T18:17:05;4.20;;;2.58;;
15006;SDS011;7599;50.748;13.142;2024-01-30T18:20:07;4.05;;;2.17;;
15006;SDS011;7599;50.748;13.142;2024-01-30T18:23:10;3.55;;;2.20;;
15006;SDS011;7599;50.748;13.142;2024-01-30T18:26:17;5.03;;;2.60;;
15006;SDS011;7599;50.748;13.142;2024-01-30T18:29:20;3.15;;;2.38;;
15006;SDS011;7599;50.748;13.142;2024-01-30T18:35:27;3.97;;;2.00;;
15006;SDS011;7599;50.748;13.142;2024-01-30T18:38:29;2.88;;;1.77;;
15006;SDS011;7599;50.748;13.142;2024-01-30T18:41:33;4.68;;;1.95;;
15006;SDS011;7599;50.748;13.142;2024-01-30T18:44:43;2.75;;;1.50;;
15006;SDS011;7599;50.748;13.142;2024-01-30T18:47:49;4.10;;;1.95;;
15006;SDS011;7599;50.748;13.142;2024-01-30T18:50:51;4.57;;;2.10;;
15006;SDS011;7599;50.748;13.142;2024-01-30T18:53:56;4.53;;;2.50;;
15006;SDS011;7599;50.748;13.142;2024-01-30T18:56:58;2.72;;;2.00;;
15006;SDS011;7599;50.748;13.142;2024-01-30T19:00:02;4.55;;;2.63;;
15006;SDS011;7599;50.748;13.142;2024-01-30T19:03:10;3.70;;;1.95;;
15006;SDS011;7599;50.748;13.142;2024-01-30T19:06:17;3.88;;;1.90;;
15006;SDS011;7599;50.748;13.142;2024-01-30T19:09:20;2.53;;;1.50;;
15006;SDS011;7599;50.748;13.142;2024-01-30T19:12:24;4.88;;;1.90;;
15006;SDS011;7599;50.748;13.142;2024-01-30T19:15:30;2.85;;;1.90;;
15006;SDS011;7599;50.748;13.142;2024-01-30T19:18:53;3.38;;;1.75;;
15006;SDS011;7599;50.748;13.142;2024-01-30T19:22:06;3.70;;;2.00;;
15006;SDS011;7599;50.748;13.142;2024-01-30T19:25:14;2.78;;;1.75;;
15006;SDS011;7599;50.748;13.142;2024-01-30T19:28:17;3.80;;;2.10;;
15006;SDS011;7599;50.748;13.142;2024-01-30T19:31:20;5.00;;;1.90;;
15006;SDS011;7599;50.748;13.142;2024-01-30T19:34:24;2.47;;;1.88;;
15006;SDS011;7599;50.748;13.142;2024-01-30T19:37:34;2.00;;;1.50;;
15006;SDS011;7599;50.748;13.142;2024-01-30T19:40:38;2.50;;;1.92;;
15006;SDS011;7599;50.748;13.142;2024-01-30T19:43:41;3.17;;;1.70;;
15006;SDS011;7599;50.748;13.142;2024-01-30T19:46:48;1.80;;;1.40;;
15006;SDS011;7599;50.748;13.142;2024-01-30T19:49:52;2.65;;;1.98;;
15006;SDS011;7599;50.748;13.142;2024-01-30T19:52:57;3.08;;;1.70;;
15006;SDS011;7599;50.748;13.142;2024-01-30T19:56:00;4.45;;;1.73;;
15006;SDS011;7599;50.748;13.142;2024-01-30T19:59:18;2.70;;;1.70;;
15006;SDS011;7599;50.748;13.142;2024-01-30T20:02:20;2.25;;;1.70;;
15006;SDS011;7599;50.748;13.142;2024-01-30T20:05:27;3.22;;;1.80;;
15006;SDS011;7599;50.748;13.142;2024-01-30T20:08:31;3.25;;;1.95;;
15006;SDS011;7599;50.748;13.142;2024-01-30T20:11:42;2.47;;;1.50;;
15006;SDS011;7599;50.748;13.142;2024-01-30T20:14:46;2.17;;;1.63;;
15006;SDS011;7599;50.748;13.142;2024-01-30T20:17:52;2.45;;;1.90;;
15006;SDS011;7599;50.748;13.142;2024-01-30T20:20:56;2.33;;;1.70;;
15006;SDS011;7599;50.748;13.142;2024-01-30T20:24:03;2.10;;;1.70;;
15006;SDS011;7599;50.748;13.142;2024-01-30T20:27:21;2.58;;;2.05;;
15006;SDS011;7599;50.748;13.142;2024-01-30T20:30:24;2.80;;;1.98;;
15006;SDS011;7599;50.748;13.142;2024-01-30T20:33:26;3.10;;;2.10;;
15006;SDS011;7599;50.748;13.142;2024-01-30T20:36:37;2.53;;;1.65;;
15006;SDS011;7599;50.748;13.142;2024-01-30T20:39:40;2.65;;;1.60;;
15006;SDS011;7599;50.748;13.142;2024-01-30T20:42:47;2.63;;;1.70;;
15006;SDS011;7599;50.748;13.142;2024-01-30T20:46:13;3.13;;;1.67;;
15006;SDS011;7599;50.748;13.142;2024-01-30T20:49:18;4.05;;;2.25;;
15006;SDS011;7599;50.748;13.142;2024-01-30T20:52:24;2.88;;;1.83;;
15006;SDS011;7599;50.748;13.142;2024-01-30T20:55:27;3.17;;;1.98;;